RCS weather

Rochester Airport
Rochester, England, United Kingdom

Public forecast

Using degrees Celsius for public forecast. Weather courtesy of forecast.io.

METAR (pilot weather report)

Closest report is Southend Airport, 15.0 nm (27.8 km) NNE. Retrieved 2019/04/20 19:20 UTC (35 minutes ago):

EGMC 201920Z VRB03KT CAVOK 12/05 Q1028

TAF (pilot weather forecast)

Forecast is more than 12 hours old.

Closest forecast is Southend Airport, 15.0 nm (27.8 km) NNE. Retrieved 2016/04/18 18:00 UTC (3 years ago):

TAF EGMC 181658Z 1818/1903 28008KT 9999 BKN045